createdAt,value
2019-03-10T00:00:33.657Z,1.00
2019-03-10T00:03:03.702Z,0.80
2019-03-10T00:05:33.697Z,2.80
2019-03-10T00:08:03.697Z,2.40
2019-03-10T00:10:33.677Z,2.20
2019-03-10T00:13:03.921Z,0.80
2019-03-10T00:15:33.993Z,1.00
2019-03-10T00:18:04.055Z,4.00
2019-03-10T00:20:34.111Z,0.40
2019-03-10T00:23:04.238Z,4.00
2019-03-10T00:25:34.256Z,1.00
2019-03-10T00:28:04.233Z,4.00
2019-03-10T00:30:34.220Z,1.00
2019-03-10T00:33:04.276Z,2.60
2019-03-10T00:35:34.284Z,1.60
2019-03-10T00:38:04.408Z,1.00
2019-03-10T00:40:43.166Z,1.40
2019-03-10T00:43:35.616Z,0.80
2019-03-10T00:46:34.318Z,0.80
2019-03-10T00:49:40.958Z,1.00
2019-03-10T00:52:14.465Z,2.80
2019-03-10T00:54:44.512Z,0.60
2019-03-10T00:57:14.532Z,2.20
2019-03-10T00:59:44.815Z,1.80
2019-03-10T01:02:14.936Z,4.00
2019-03-10T01:04:45.561Z,2.20
2019-03-10T01:07:15.795Z,4.00
2019-03-10T01:09:45.934Z,2.00
2019-03-10T01:12:15.912Z,4.40
2019-03-10T01:14:46.033Z,2.20
2019-03-10T01:17:17.009Z,6.00
2019-03-10T01:19:47.397Z,3.00
2019-03-10T01:22:17.825Z,0.00
2019-03-10T01:24:48.251Z,5.00
2019-03-10T01:27:18.362Z,2.20
2019-03-10T01:29:48.460Z,0.60
2019-03-10T01:32:37.964Z,3.80
2019-03-10T01:35:10.855Z,2.20
2019-03-10T01:37:40.853Z,4.00
2019-03-10T01:40:11.199Z,3.60
2019-03-10T01:42:41.173Z,2.60
2019-03-10T01:45:12.989Z,2.20
2019-03-10T01:47:43.061Z,1.20
2019-03-10T01:50:14.733Z,3.60
2019-03-10T01:52:44.823Z,3.80
2019-03-10T01:55:15.144Z,2.00
2019-03-10T01:57:45.375Z,4.00
2019-03-10T02:00:18.688Z,1.60
2019-03-10T02:02:48.879Z,5.80
2019-03-10T02:05:19.099Z,1.00
2019-03-10T02:07:49.176Z,1.40
2019-03-10T02:10:19.221Z,1.00
2019-03-10T02:12:49.346Z,2.40
2019-03-10T02:15:19.597Z,2.00
2019-03-10T02:17:49.682Z,2.40
2019-03-10T02:20:19.939Z,1.80
2019-03-10T02:22:50.158Z,0.00
2019-03-10T02:25:20.351Z,3.60
2019-03-10T02:27:50.444Z,6.00
2019-03-10T02:30:20.874Z,4.20
2019-03-10T02:32:51.950Z,0.80
2019-03-10T02:35:22.091Z,1.00
2019-03-10T02:37:52.261Z,1.00
2019-03-10T02:40:22.480Z,2.00
2019-03-10T02:42:52.599Z,1.60
2019-03-10T02:45:22.824Z,0.00
2019-03-10T02:47:52.829Z,1.60
2019-03-10T02:50:22.983Z,4.00
2019-03-10T02:52:52.967Z,2.20
2019-03-10T02:55:23.115Z,4.20
2019-03-10T02:57:53.243Z,1.80
2019-03-10T03:00:23.419Z,0.20
2019-03-10T03:02:53.540Z,1.40
2019-03-10T03:05:23.638Z,0.20
2019-03-10T03:07:53.767Z,1.00
2019-03-10T03:10:23.992Z,1.20
2019-03-10T03:12:54.323Z,3.60
2019-03-10T03:15:24.741Z,4.00
2019-03-10T03:17:54.966Z,2.00
2019-03-10T03:20:25.133Z,1.20
2019-03-10T03:22:55.729Z,2.20
2019-03-10T03:25:25.786Z,1.40
2019-03-10T03:27:55.935Z,3.20
2019-03-10T03:30:26.097Z,2.00
2019-03-10T03:32:56.187Z,1.60
2019-03-10T03:35:54.962Z,2.20
2019-03-10T03:38:27.808Z,1.20
2019-03-10T03:41:20.735Z,4.00
2019-03-10T03:43:50.713Z,1.80
2019-03-10T03:46:20.742Z,0.80
2019-03-10T03:48:50.701Z,1.20
2019-03-10T03:51:20.758Z,1.00
2019-03-10T03:53:50.949Z,4.00
2019-03-10T03:56:20.942Z,4.80
2019-03-10T03:58:50.920Z,1.40
2019-03-10T04:01:22.545Z,1.60
2019-03-10T04:03:52.552Z,1.60
2019-03-10T04:06:22.572Z,1.80
2019-03-10T04:08:53.548Z,3.60
2019-03-10T04:11:23.737Z,1.40
2019-03-10T04:13:53.786Z,1.80
2019-03-10T04:16:23.834Z,3.00
2019-03-10T04:18:53.806Z,2.20
2019-03-10T04:21:23.839Z,0.00
2019-03-10T04:23:53.877Z,3.80
2019-03-10T04:26:25.595Z,4.00
2019-03-10T04:28:55.566Z,4.60
2019-03-10T04:31:26.058Z,3.40
2019-03-10T04:33:56.038Z,2.20
2019-03-10T04:36:26.211Z,2.60
2019-03-10T04:38:56.172Z,1.00
2019-03-10T04:41:26.255Z,1.00
2019-03-10T04:43:56.208Z,0.20
2019-03-10T04:46:26.247Z,1.00
2019-03-10T04:48:56.448Z,1.20
2019-03-10T04:51:26.960Z,5.20
2019-03-10T04:53:56.924Z,0.00
2019-03-10T04:56:28.516Z,2.80
2019-03-10T04:58:58.487Z,0.80
2019-03-10T05:01:28.524Z,4.00
2019-03-10T05:03:58.537Z,6.40
2019-03-10T05:06:28.542Z,3.60
2019-03-10T05:08:58.528Z,0.60
2019-03-10T05:11:28.879Z,1.00
2019-03-10T05:13:58.891Z,1.00
2019-03-10T05:16:28.873Z,0.00
2019-03-10T05:18:58.819Z,1.00
2019-03-10T05:21:28.880Z,2.80
2019-03-10T05:24:01.857Z,1.40
2019-03-10T05:26:31.994Z,2.40
2019-03-10T05:29:01.987Z,1.00
2019-03-10T05:31:32.036Z,0.00
2019-03-10T05:34:01.989Z,0.80
2019-03-10T05:36:32.052Z,1.40
2019-03-10T05:39:04.720Z,0.20
2019-03-10T05:41:34.779Z,2.40
2019-03-10T05:44:04.868Z,2.00
2019-03-10T05:46:34.878Z,0.80
2019-03-10T05:49:04.890Z,1.60
2019-03-10T05:51:34.908Z,2.00
2019-03-10T05:54:04.907Z,1.00
2019-03-10T05:56:35.027Z,0.00
2019-03-10T05:59:04.996Z,1.00
2019-03-10T06:01:35.034Z,0.00
2019-03-10T06:04:05.041Z,2.00
2019-03-10T06:06:35.088Z,2.20
2019-03-10T06:09:06.568Z,1.00
2019-03-10T06:11:36.604Z,2.20
2019-03-10T06:14:06.577Z,4.60
2019-03-10T06:16:36.701Z,2.20
2019-03-10T06:19:06.691Z,1.40
2019-03-10T06:21:36.991Z,2.00
2019-03-10T06:24:07.140Z,2.40
2019-03-10T06:26:37.201Z,2.60
2019-03-10T06:29:07.207Z,0.40
2019-03-10T06:31:37.285Z,2.20
2019-03-10T06:34:07.290Z,1.00
2019-03-10T06:36:37.321Z,1.00
2019-03-10T06:39:07.622Z,2.20
2019-03-10T06:41:37.691Z,2.00
2019-03-10T06:44:07.733Z,1.00
2019-03-10T06:46:37.851Z,1.00
2019-03-10T06:49:07.909Z,0.80
2019-03-10T06:51:37.959Z,0.40
2019-03-10T06:54:08.034Z,2.80
2019-03-10T06:56:38.063Z,1.00
2019-03-10T06:59:08.065Z,0.40
2019-03-10T07:01:38.106Z,1.60
2019-03-10T07:04:08.281Z,1.00
2019-03-10T07:06:38.417Z,2.00
2019-03-10T07:09:08.494Z,0.00
2019-03-10T07:11:38.543Z,1.00
2019-03-10T07:14:08.765Z,1.40
2019-03-10T07:16:38.896Z,2.00
2019-03-10T07:19:09.026Z,0.60
2019-03-10T07:21:39.205Z,1.00
2019-03-10T07:24:09.431Z,5.00
2019-03-10T07:26:39.429Z,1.80
2019-03-10T07:29:13.961Z,1.00
2019-03-10T07:31:54.421Z,1.00
2019-03-10T07:34:28.827Z,0.00
2019-03-10T07:37:06.534Z,1.00
2019-03-10T07:39:38.393Z,1.00
2019-03-10T07:42:14.065Z,0.60
2019-03-10T07:45:02.285Z,1.00
2019-03-10T07:47:50.663Z,0.00
2019-03-10T07:50:28.710Z,1.00
2019-03-10T07:53:00.595Z,1.00
2019-03-10T07:55:41.607Z,1.80
2019-03-10T07:58:22.357Z,0.00
2019-03-10T08:00:56.682Z,0.80
2019-03-10T08:03:44.727Z,0.00
2019-03-10T08:06:19.535Z,0.00
2019-03-10T08:08:57.211Z,0.00
2019-03-10T08:11:32.131Z,3.40
2019-03-10T08:14:22.011Z,1.20
2019-03-10T08:17:09.728Z,1.00
2019-03-10T08:19:47.648Z,0.40
2019-03-10T08:22:19.396Z,1.00
2019-03-10T08:24:56.788Z,0.40
2019-03-10T08:27:44.821Z,0.60
2019-03-10T08:30:34.092Z,1.00
2019-03-10T08:33:08.704Z,1.00
2019-03-10T08:35:56.963Z,1.60
2019-03-10T08:38:31.264Z,0.40
2019-03-10T08:41:02.826Z,0.00
2019-03-10T08:43:37.130Z,0.00
2019-03-10T08:46:11.718Z,0.00
2019-03-10T08:48:59.941Z,1.00
2019-03-10T08:51:34.471Z,1.00
2019-03-10T08:54:11.899Z,0.00
2019-03-10T08:56:46.472Z,1.20
2019-03-10T08:59:34.538Z,0.20
2019-03-10T09:02:07.443Z,0.00
2019-03-10T09:04:39.007Z,1.00
2019-03-10T09:07:19.911Z,0.60
2019-03-10T09:10:07.805Z,1.00
2019-03-10T09:12:56.135Z,0.20
2019-03-10T09:15:44.088Z,1.00
2019-03-10T09:18:32.236Z,0.20
2019-03-10T09:21:03.776Z,0.60
2019-03-10T09:23:35.358Z,1.00
2019-03-10T09:26:24.113Z,1.00
2019-03-10T09:28:58.737Z,1.00
2019-03-10T09:31:46.587Z,1.00
2019-03-10T09:34:21.466Z,1.00
2019-03-10T09:36:59.365Z,1.00
2019-03-10T09:39:40.348Z,0.80
2019-03-10T09:42:15.020Z,4.00
2019-03-10T09:44:52.551Z,5.40
2019-03-10T09:47:26.968Z,8.40
2019-03-10T09:50:14.917Z,2.00
2019-03-10T09:52:47.792Z,2.00
2019-03-10T09:55:22.524Z,0.00
2019-03-10T09:58:10.557Z,0.00
2019-03-10T10:00:58.585Z,0.00
2019-03-10T10:03:39.143Z,0.00
2019-03-10T10:06:13.592Z,0.00
2019-03-10T10:08:45.462Z,0.00
2019-03-10T10:11:17.103Z,0.00
2019-03-10T10:13:48.729Z,0.00
2019-03-10T10:16:20.332Z,0.00
2019-03-10T10:18:54.967Z,0.00
2019-03-10T10:21:43.033Z,0.00
2019-03-10T10:24:17.695Z,0.00
2019-03-10T10:26:49.260Z,0.00
2019-03-10T10:29:23.649Z,0.00
2019-03-10T10:32:04.352Z,0.00
2019-03-10T10:34:35.955Z,0.00
2019-03-10T10:37:13.444Z,0.00
2019-03-10T10:39:51.038Z,0.00
2019-03-10T10:42:40.714Z,0.00
2019-03-10T10:45:29.468Z,0.00
2019-03-10T10:48:03.701Z,0.00
2019-03-10T10:50:35.321Z,0.00
2019-03-10T10:53:23.198Z,0.00
2019-03-10T10:55:57.837Z,0.00
2019-03-10T10:58:35.519Z,0.00
2019-03-10T11:01:16.047Z,0.00
2019-03-10T11:03:47.617Z,0.00
2019-03-10T11:06:35.778Z,0.00
2019-03-10T11:09:12.623Z,0.00
2019-03-10T11:11:50.666Z,0.00
2019-03-10T11:14:38.552Z,0.00
2019-03-10T11:17:26.581Z,0.00
2019-03-10T11:19:58.154Z,0.00
2019-03-10T11:22:35.629Z,1.00
2019-03-10T11:25:14.357Z,0.20
2019-03-10T11:27:48.970Z,0.00
2019-03-10T11:30:37.219Z,0.00
2019-03-10T11:33:11.622Z,0.00
2019-03-10T11:35:59.802Z,0.00
2019-03-10T11:38:31.628Z,0.00
2019-03-10T11:41:06.205Z,0.00
2019-03-10T11:43:38.006Z,0.00
2019-03-10T11:46:23.795Z,0.00
2019-03-10T11:49:01.895Z,0.00
2019-03-10T11:51:33.603Z,0.00
2019-03-10T11:54:05.312Z,0.00
2019-03-10T11:56:37.265Z,0.00
2019-03-10T11:59:09.330Z,0.00
2019-03-10T12:01:41.122Z,0.00
2019-03-10T12:04:18.781Z,0.00
2019-03-10T12:06:50.621Z,0.00
2019-03-10T12:09:23.557Z,0.00
2019-03-10T12:11:53.744Z,0.00
2019-03-10T12:14:24.062Z,0.00
2019-03-10T12:16:54.413Z,0.00
2019-03-10T12:19:24.711Z,0.00
2019-03-10T12:21:55.901Z,1.80
2019-03-10T12:24:27.182Z,0.00
2019-03-10T12:26:57.293Z,0.60
2019-03-10T12:29:27.312Z,0.00
2019-03-10T12:31:57.321Z,0.60
2019-03-10T12:34:27.499Z,0.80
2019-03-10T12:36:57.574Z,1.00
2019-03-10T12:39:27.654Z,0.00
2019-03-10T12:41:58.994Z,0.80
2019-03-10T12:44:30.664Z,2.20
2019-03-10T12:47:00.945Z,0.40
2019-03-10T12:49:31.168Z,2.00
2019-03-10T12:52:01.322Z,1.80
2019-03-10T12:54:31.506Z,1.80
2019-03-10T12:57:01.651Z,1.60
2019-03-10T12:59:31.996Z,2.80
2019-03-10T13:02:02.038Z,2.20
2019-03-10T13:04:33.379Z,2.20
2019-03-10T13:07:03.386Z,1.00
2019-03-10T13:09:33.434Z,1.00
2019-03-10T13:12:03.477Z,0.00
2019-03-10T13:14:33.517Z,1.00
2019-03-10T13:17:03.548Z,0.60
2019-03-10T13:19:33.528Z,2.00
2019-03-10T13:22:03.599Z,0.00
2019-03-10T13:24:33.565Z,2.20
2019-03-10T13:27:03.590Z,2.20
2019-03-10T13:29:33.589Z,4.80
2019-03-10T13:32:04.741Z,3.80
2019-03-10T13:34:34.726Z,5.20
2019-03-10T13:37:06.363Z,3.60
2019-03-10T13:39:36.365Z,4.40
2019-03-10T13:42:06.379Z,3.20
2019-03-10T13:44:36.364Z,5.20
2019-03-10T13:47:06.367Z,4.00
2019-03-10T13:49:36.368Z,4.40
2019-03-10T13:52:06.537Z,4.60
2019-03-10T13:54:36.669Z,4.60
2019-03-10T13:57:06.722Z,7.80
2019-03-10T13:59:36.758Z,4.60
2019-03-10T14:02:06.766Z,4.20
2019-03-10T14:04:36.780Z,4.00
2019-03-10T14:07:06.803Z,4.80
2019-03-10T14:09:37.763Z,7.60
2019-03-10T14:12:07.782Z,5.40
2019-03-10T14:14:37.796Z,4.80
2019-03-10T14:17:07.975Z,5.20
2019-03-10T14:19:37.938Z,4.00
2019-03-10T14:22:07.967Z,4.00
2019-03-10T14:24:38.007Z,4.00
2019-03-10T14:27:08.054Z,3.00
2019-03-10T14:29:38.062Z,4.20
2019-03-10T14:32:09.512Z,3.00
2019-03-10T14:34:39.492Z,2.20
2019-03-10T14:37:09.691Z,6.00
2019-03-10T14:39:39.716Z,6.00
2019-03-10T14:42:09.799Z,6.60
2019-03-10T14:44:40.920Z,7.60
2019-03-10T14:47:11.931Z,8.20
2019-03-10T14:49:41.868Z,6.60
2019-03-10T14:52:12.015Z,8.00
2019-03-10T14:54:42.021Z,4.60
2019-03-10T14:57:12.039Z,7.40
2019-03-10T14:59:43.620Z,7.80
2019-03-10T15:02:13.725Z,7.00
2019-03-10T15:04:43.921Z,4.20
2019-03-10T15:07:13.985Z,9.20
2019-03-10T15:09:43.975Z,6.00
2019-03-10T15:12:13.993Z,6.40
2019-03-10T15:14:44.001Z,8.00
2019-03-10T15:17:14.000Z,8.40
2019-03-10T15:19:44.014Z,9.80
2019-03-10T15:22:14.136Z,6.80
2019-03-10T15:24:44.294Z,10.00
2019-03-10T15:27:22.976Z,10.40
2019-03-10T15:29:46.229Z,11.40
2019-03-10T15:32:16.310Z,13.60
2019-03-10T15:34:46.347Z,8.20
2019-03-10T15:37:16.350Z,6.20
2019-03-10T15:39:46.350Z,8.40
2019-03-10T15:42:16.298Z,12.80
2019-03-10T15:44:46.301Z,9.80
2019-03-10T15:47:16.233Z,15.20
2019-03-10T15:49:46.245Z,16.20
2019-03-10T15:52:16.898Z,15.20
2019-03-10T15:54:46.795Z,16.00
2019-03-10T15:57:16.741Z,22.00
2019-03-10T15:59:46.714Z,16.80
2019-03-10T16:02:16.686Z,13.00
2019-03-10T16:04:46.626Z,15.00
2019-03-10T16:07:16.597Z,15.60
2019-03-10T16:09:46.604Z,13.40
2019-03-10T16:12:16.655Z,14.00
2019-03-10T16:14:46.567Z,17.40
2019-03-10T16:17:16.555Z,19.60
2019-03-10T16:19:46.474Z,16.80
2019-03-10T16:22:16.467Z,21.80
2019-03-10T16:24:46.409Z,21.00
2019-03-10T16:27:16.519Z,17.60
2019-03-10T16:29:46.456Z,12.80
2019-03-10T16:32:16.658Z,16.00
2019-03-10T16:34:47.645Z,12.00
2019-03-10T16:37:17.788Z,9.20
2019-03-10T16:39:47.978Z,9.40
2019-03-10T16:42:20.472Z,6.00
2019-03-10T16:44:50.459Z,7.00
2019-03-10T16:47:20.647Z,6.40
2019-03-10T16:49:50.795Z,9.20
2019-03-10T16:52:21.020Z,12.00
2019-03-10T16:54:51.101Z,17.40
2019-03-10T16:57:21.283Z,6.40
2019-03-10T16:59:51.376Z,13.40
2019-03-10T17:02:21.437Z,15.00
2019-03-10T17:04:51.464Z,15.00
2019-03-10T17:07:21.467Z,15.80
2019-03-10T17:09:51.497Z,21.60
2019-03-10T17:12:21.499Z,18.20
2019-03-10T17:14:51.468Z,21.00
2019-03-10T17:17:21.635Z,22.00
2019-03-10T17:19:51.704Z,24.80
2019-03-10T17:22:21.956Z,24.80
2019-03-10T17:24:52.395Z,27.80
2019-03-10T17:27:22.358Z,20.60
2019-03-10T17:29:52.457Z,24.00
2019-03-10T17:32:22.543Z,27.60
2019-03-10T17:34:52.589Z,27.20
2019-03-10T17:37:24.000Z,20.20
2019-03-10T17:39:54.127Z,15.80
2019-03-10T17:42:24.133Z,17.60
2019-03-10T17:44:54.307Z,17.60
2019-03-10T17:47:26.918Z,12.40
2019-03-10T17:49:55.907Z,15.40
2019-03-10T17:52:26.088Z,12.80
2019-03-10T17:54:56.164Z,12.80
2019-03-10T17:57:26.162Z,16.00
2019-03-10T17:59:56.537Z,12.00
2019-03-10T18:02:26.760Z,12.00
2019-03-10T18:04:56.883Z,10.00
2019-03-10T18:07:27.193Z,14.20
2019-03-10T18:09:57.272Z,13.00
2019-03-10T18:12:27.589Z,17.40
2019-03-10T18:15:07.891Z,13.80
2019-03-10T18:17:29.454Z,12.60
2019-03-10T18:19:59.557Z,9.60
2019-03-10T18:22:29.849Z,9.00
2019-03-10T18:24:59.901Z,8.60
2019-03-10T18:27:30.158Z,7.80
2019-03-10T18:30:00.386Z,7.00
2019-03-10T18:32:30.631Z,7.40
2019-03-10T18:35:00.743Z,6.80
2019-03-10T18:37:33.784Z,12.40
2019-03-10T18:40:02.722Z,8.20
2019-03-10T18:42:34.164Z,4.80
2019-03-10T18:45:06.123Z,7.00
2019-03-10T18:47:36.443Z,7.00
2019-03-10T18:50:09.530Z,6.80
2019-03-10T18:52:39.764Z,6.20
2019-03-10T18:55:11.876Z,4.40
2019-03-10T18:57:41.933Z,3.80
2019-03-10T19:00:24.032Z,4.00
2019-03-10T19:02:54.180Z,4.00
2019-03-10T19:05:24.264Z,4.00
2019-03-10T19:07:54.563Z,7.00
2019-03-10T19:10:24.844Z,7.00
2019-03-10T19:12:55.077Z,11.60
2019-03-10T19:15:28.873Z,9.40
2019-03-10T19:17:58.828Z,10.00
2019-03-10T19:20:28.745Z,13.00
2019-03-10T19:22:58.803Z,12.40
2019-03-10T19:25:28.724Z,15.00
2019-03-10T19:27:58.640Z,14.40
2019-03-10T19:30:28.599Z,13.80
2019-03-10T19:32:58.608Z,12.60
2019-03-10T19:35:28.513Z,11.20
2019-03-10T19:37:58.490Z,13.80
2019-03-10T19:40:28.531Z,16.60
2019-03-10T19:42:58.837Z,12.00
2019-03-10T19:45:28.851Z,16.80
2019-03-10T19:47:59.024Z,9.80
2019-03-10T19:50:29.859Z,9.00
2019-03-10T19:53:00.108Z,7.00
2019-03-10T19:55:30.568Z,6.60
2019-03-10T19:58:00.692Z,9.40
2019-03-10T20:00:30.788Z,11.20
2019-03-10T20:03:01.106Z,9.80
2019-03-10T20:05:31.328Z,13.00
2019-03-10T20:08:01.415Z,9.20
2019-03-10T20:10:31.461Z,18.00
2019-03-10T20:13:01.605Z,9.40
2019-03-10T20:15:31.757Z,6.60
2019-03-10T20:18:01.914Z,7.00
2019-03-10T20:20:34.731Z,8.60
2019-03-10T20:23:04.863Z,4.80
2019-03-10T20:25:35.603Z,4.40
2019-03-10T20:28:05.817Z,4.00
2019-03-10T20:30:35.933Z,3.00
2019-03-10T20:33:09.328Z,3.20
2019-03-10T20:35:39.398Z,3.80
2019-03-10T20:38:09.570Z,3.00
2019-03-10T20:40:39.709Z,3.00
2019-03-10T20:43:09.818Z,4.00
2019-03-10T20:45:40.221Z,1.00
2019-03-10T20:48:10.443Z,4.00
2019-03-10T20:50:40.451Z,4.80
2019-03-10T20:53:10.518Z,8.20
2019-03-10T20:55:40.414Z,10.00
2019-03-10T20:58:10.403Z,14.60
2019-03-10T21:00:40.457Z,18.60
2019-03-10T21:03:11.408Z,18.80
2019-03-10T21:05:41.380Z,21.60
2019-03-10T21:08:11.551Z,25.00
2019-03-10T21:10:41.557Z,27.20
2019-03-10T21:13:12.092Z,29.20
2019-03-10T21:15:42.096Z,25.00
2019-03-10T21:18:12.117Z,20.20
2019-03-10T21:20:42.117Z,25.60
2019-03-10T21:23:12.105Z,26.20
2019-03-10T21:25:42.052Z,24.40
2019-03-10T21:28:11.980Z,29.40
2019-03-10T21:30:41.973Z,23.40
2019-03-10T21:33:11.939Z,27.60
2019-03-10T21:35:42.010Z,15.40
2019-03-10T21:38:11.950Z,13.80
2019-03-10T21:40:42.139Z,21.00
2019-03-10T21:43:12.371Z,15.80
2019-03-10T21:45:42.590Z,10.20
2019-03-10T21:48:12.527Z,12.60
2019-03-10T21:50:43.802Z,10.80
2019-03-10T21:53:14.589Z,9.20
2019-03-10T21:55:44.941Z,6.00
2019-03-10T21:58:15.252Z,7.00
2019-03-10T22:00:45.497Z,8.20
2019-03-10T22:03:15.765Z,6.60
2019-03-10T22:05:46.033Z,4.40
2019-03-10T22:08:16.119Z,6.40
2019-03-10T22:10:46.524Z,4.80
2019-03-10T22:13:16.684Z,6.60
2019-03-10T22:15:46.861Z,5.20
2019-03-10T22:18:17.054Z,4.40
2019-03-10T22:20:47.173Z,3.80
2019-03-10T22:23:17.357Z,4.80
2019-03-10T22:25:47.576Z,3.20
2019-03-10T22:28:17.697Z,1.40
2019-03-10T22:30:48.844Z,2.20
2019-03-10T22:33:19.054Z,1.00
2019-03-10T22:35:49.278Z,3.80
2019-03-10T22:38:19.297Z,2.60
2019-03-10T22:40:49.429Z,4.00
2019-03-10T22:43:19.726Z,3.00
2019-03-10T22:45:49.888Z,3.00
2019-03-10T22:48:20.073Z,1.00
2019-03-10T22:50:50.187Z,2.20
2019-03-10T22:53:20.377Z,0.80
2019-03-10T22:55:50.520Z,0.40
2019-03-10T22:58:21.639Z,1.00
2019-03-10T23:00:53.657Z,1.00
2019-03-10T23:03:24.035Z,1.00
2019-03-10T23:05:54.274Z,0.60
2019-03-10T23:08:24.385Z,0.00
2019-03-10T23:10:54.499Z,0.80
2019-03-10T23:13:24.618Z,0.80
2019-03-10T23:15:54.659Z,0.40
2019-03-10T23:18:24.644Z,1.00
2019-03-10T23:20:54.781Z,0.00
2019-03-10T23:23:24.914Z,1.00
2019-03-10T23:25:54.993Z,0.00
2019-03-10T23:28:26.240Z,0.00
2019-03-10T23:30:57.498Z,0.00
2019-03-10T23:33:27.603Z,0.00
2019-03-10T23:35:57.741Z,1.00
2019-03-10T23:38:27.942Z,0.00
2019-03-10T23:40:59.287Z,0.00
2019-03-10T23:43:29.513Z,0.00
2019-03-10T23:45:59.735Z,0.00
2019-03-10T23:48:29.797Z,0.00
2019-03-10T23:50:59.870Z,0.00
2019-03-10T23:53:29.837Z,0.40
2019-03-10T23:55:59.989Z,0.00
2019-03-10T23:58:30.115Z,0.00
